Time;durP1;ratioP1;P1;durP2;ratioP2;P2;SDS_P1;SDS_P2;PMS_P1;PMS_P2;Temp;Humidity;BMP_temperature;BMP_pressure;BME280_temperature;BME280_humidity;BME280_pressure;Samples;Min_cycle;Max_cycle;Signal;HPM_P1;HPM_P2
2021/11/12 00:13:20;;;;;;;47.45;24.58;;;8.80;93.60;;;;;;5029396;28;20032;-61
2021/11/12 00:15:53;;;;;;;40.67;25.25;;;8.70;93.60;;;;;;5041875;28;20169;-61
2021/11/12 00:18:26;;;;;;;42.45;25.02;;;8.80;93.60;;;;;;5024649;28;20036;-62
2021/11/12 00:20:52;;;;;;;36.80;23.52;;;8.80;93.60;;;;;;5041416;28;20021;-61
2021/11/12 00:23:18;;;;;;;41.38;23.88;;;8.70;93.60;;;;;;5034065;28;20431;-62
2021/11/12 00:25:45;;;;;;;36.20;22.92;;;8.80;93.60;;;;;;5041869;28;20043;-62
2021/11/12 00:28:12;;;;;;;33.78;21.95;;;8.70;93.60;;;;;;5022665;28;20480;-61
2021/11/12 00:36:17;;;;;;;36.78;21.75;;;8.70;93.50;;;;;;5008874;28;20568;-63
2021/11/12 00:38:49;;;;;;;39.80;21.17;;;8.70;93.50;;;;;;5043172;28;20090;-62
2021/11/12 00:43:47;;;;;;;38.95;22.15;;;8.70;93.50;;;;;;5043926;28;20029;-63
2021/11/12 00:46:21;;;;;;;37.90;21.77;;;8.70;93.40;;;;;;5038672;28;20162;-63
2021/11/12 00:48:54;;;;;;;30.58;22.10;;;8.70;93.50;;;;;;5018475;28;20427;-63
2021/11/12 00:51:38;;;;;;;37.42;23.77;;;8.70;93.50;;;;;;5039371;28;20036;-63
2021/11/12 00:56:30;;;;;;;35.88;21.45;;;8.70;93.50;;;;;;5038355;28;20530;-60
2021/11/12 00:58:57;;;;;;;33.85;21.23;;;8.70;93.50;;;;;;5041792;28;20032;-61
2021/11/12 01:01:23;;;;;;;31.80;20.88;;;8.70;93.50;;;;;;5040575;28;20025;-61
2021/11/12 01:03:49;;;;;;;29.42;20.85;;;8.70;93.50;;;;;;5027193;28;20444;-61
2021/11/12 01:06:14;;;;;;;30.55;21.20;;;8.70;93.50;;;;;;5039872;28;20111;-60
2021/11/12 01:08:40;;;;;;;34.42;21.85;;;8.70;93.40;;;;;;5042017;28;20437;-61
2021/11/12 01:11:06;;;;;;;34.55;21.13;;;8.70;93.40;;;;;;5040523;28;20730;-61
2021/11/12 01:13:31;;;;;;;30.90;21.08;;;8.90;93.50;;;;;;5041913;28;20301;-60
2021/11/12 01:15:57;;;;;;;30.48;20.73;;;8.60;93.40;;;;;;5042483;28;20033;-61
2021/11/12 01:18:23;;;;;;;30.58;19.48;;;8.70;93.50;;;;;;5038443;28;20025;-61
2021/11/12 01:20:49;;;;;;;35.97;21.33;;;8.60;93.40;;;;;;5022179;28;20104;-60
2021/11/12 01:23:15;;;;;;;31.55;19.33;;;8.60;93.40;;;;;;5040207;28;20109;-61
2021/11/12 01:25:42;;;;;;;30.52;20.23;;;8.60;93.40;;;;;;4988720;28;20035;-60
2021/11/12 01:28:07;;;;;;;29.83;20.23;;;8.60;93.40;;;;;;5039708;28;20037;-60
2021/11/12 01:30:33;;;;;;;28.25;18.88;;;8.60;93.50;;;;;;5024094;28;20765;-60
2021/11/12 01:32:59;;;;;;;32.67;20.10;;;8.60;93.40;;;;;;5024251;28;20035;-61
2021/11/12 01:35:24;;;;;;;27.75;19.83;;;8.60;93.40;;;;;;5006405;28;20059;-61
2021/11/12 01:37:51;;;;;;;25.70;18.30;;;8.60;93.40;;;;;;5039573;28;20508;-62
2021/11/12 01:40:25;;;;;;;28.23;18.55;;;8.60;93.40;;;;;;5022085;28;20064;-63
2021/11/12 01:43:20;;;;;;;30.70;18.98;;;8.60;93.40;;;;;;5024410;28;20082;-62
2021/11/12 01:45:59;;;;;;;26.38;17.95;;;8.60;93.40;;;;;;5044036;28;20079;-63
2021/11/12 01:48:48;;;;;;;28.63;19.00;;;8.60;93.40;;;;;;5038210;28;20503;-63
2021/11/12 01:53:51;;;;;;;31.02;19.42;;;8.50;93.40;;;;;;5021559;28;20028;-63
2021/11/12 01:56:30;;;;;;;27.63;18.25;;;8.60;93.40;;;;;;5022312;28;20060;-62
2021/11/12 02:01:58;;;;;;;29.13;19.50;;;8.60;93.40;;;;;;5024158;28;20033;-61
2021/11/12 02:04:27;;;;;;;26.50;18.33;;;8.60;93.40;;;;;;5017724;28;20407;-61
2021/11/12 02:06:52;;;;;;;25.08;17.70;;;8.50;93.30;;;;;;5018464;28;20024;-61
2021/11/12 02:09:19;;;;;;;29.75;17.73;;;8.50;93.40;;;;;;5042048;28;20449;-61
2021/11/12 02:12:17;;;;;;;27.65;18.45;;;8.50;93.40;;;;;;5019480;28;20538;-61
2021/11/12 02:14:44;;;;;;;24.30;18.17;;;8.50;93.40;;;;;;5028510;28;20036;-61
2021/11/12 02:17:14;;;;;;;25.17;17.45;;;8.50;93.40;;;;;;5036435;28;20036;-61
2021/11/12 02:19:48;;;;;;;26.23;18.33;;;8.50;93.30;;;;;;5020293;28;20127;-61
2021/11/12 02:22:14;;;;;;;24.65;17.63;;;8.50;93.30;;;;;;5007786;28;20072;-61
2021/11/12 02:24:46;;;;;;;25.83;17.27;;;8.50;93.40;;;;;;5021406;28;20096;-61
2021/11/12 02:27:13;;;;;;;27.05;17.23;;;8.50;93.30;;;;;;5021817;28;20436;-61
2021/11/12 02:29:49;;;;;;;24.83;17.38;;;8.50;93.30;;;;;;5040990;28;20039;-61
2021/11/12 02:32:19;;;;;;;27.38;17.73;;;8.50;93.30;;;;;;5018088;28;20021;-61
2021/11/12 02:34:47;;;;;;;26.23;16.33;;;8.50;93.30;;;;;;5025035;28;20359;-60
2021/11/12 02:37:13;;;;;;;23.25;17.23;;;8.50;93.30;;;;;;5023052;28;20090;-61
2021/11/12 02:39:38;;;;;;;20.05;16.08;;;8.50;93.30;;;;;;5020212;28;20487;-61
2021/11/12 02:42:04;;;;;;;26.13;18.10;;;8.50;93.30;;;;;;5019987;28;20037;-61
2021/11/12 02:44:34;;;;;;;26.15;17.48;;;8.50;93.30;;;;;;5037553;28;20075;-60
2021/11/12 02:46:59;;;;;;;25.38;16.83;;;8.50;93.30;;;;;;5035248;28;20029;-61
2021/11/12 02:49:25;;;;;;;25.02;17.20;;;8.50;93.40;;;;;;5038316;28;20306;-61
2021/11/12 02:51:50;;;;;;;22.33;16.17;;;8.50;93.30;;;;;;5020427;28;20070;-61
2021/11/12 02:54:16;;;;;;;24.55;17.10;;;8.40;93.30;;;;;;5037625;28;20052;-60
2021/11/12 02:56:41;;;;;;;22.13;16.05;;;8.40;93.30;;;;;;5038061;28;20040;-61
2021/11/12 02:59:10;;;;;;;22.95;16.38;;;8.40;93.30;;;;;;5040613;28;20056;-61
2021/11/12 03:01:45;;;;;;;22.45;16.90;;;8.40;93.30;;;;;;5021854;28;20022;-61
2021/11/12 03:04:10;;;;;;;21.23;17.00;;;8.40;93.30;;;;;;5015090;28;20044;-61
2021/11/12 03:06:36;;;;;;;20.50;15.60;;;8.40;93.30;;;;;;5019322;28;20287;-61
2021/11/12 03:09:05;;;;;;;23.20;16.50;;;8.40;93.30;;;;;;5021893;28;20029;-61
2021/11/12 03:11:30;;;;;;;24.52;16.40;;;8.40;93.30;;;;;;5018240;28;20056;-61
2021/11/12 03:13:56;;;;;;;23.33;16.52;;;8.40;93.30;;;;;;5017916;28;20041;-61
2021/11/12 03:16:21;;;;;;;24.20;16.70;;;8.40;93.40;;;;;;5019320;28;20247;-61
2021/11/12 03:18:47;;;;;;;22.27;17.15;;;8.40;93.40;;;;;;5014670;28;20384;-61
2021/11/12 03:21:16;;;;;;;22.00;16.85;;;8.40;93.40;;;;;;5021406;28;20036;-61
2021/11/12 03:23:50;;;;;;;23.80;16.95;;;8.40;93.40;;;;;;5003994;28;20108;-61
2021/11/12 03:26:40;;;;;;;23.05;16.90;;;8.40;93.40;;;;;;5035615;28;20032;-61
2021/11/12 03:29:39;;;;;;;22.10;17.02;;;8.30;93.40;;;;;;5035039;28;20351;-61
2021/11/12 04:02:40;;;;;;;19.70;15.45;;;8.30;93.40;;;;;;5042317;28;20036;-60
2021/11/12 04:18:51;;;;;;;19.98;15.70;;;8.30;93.50;;;;;;5042680;28;20161;-61
2021/11/12 04:21:37;;;;;;;19.85;15.35;;;8.30;93.50;;;;;;5041140;28;20118;-60
2021/11/12 05:10:30;;;;;;;20.67;14.82;;;8.20;93.40;;;;;;5039349;28;20075;-61
2021/11/12 05:35:00;;;;;;;18.50;15.07;;;8.20;93.40;;;;;;5035320;28;20087;-60
2021/11/12 05:56:01;;;;;;;18.05;14.07;;;8.10;93.50;;;;;;5040139;28;20521;-61
2021/11/12 05:58:26;;;;;;;18.05;13.93;;;8.10;93.50;;;;;;5038044;28;20071;-61
2021/11/12 06:00:53;;;;;;;17.83;13.20;;;8.10;93.50;;;;;;5033278;28;20060;-63
2021/11/12 06:03:18;;;;;;;17.73;13.73;;;8.10;93.50;;;;;;5053030;28;20507;-62
2021/11/12 06:05:44;;;;;;;17.00;13.77;;;8.10;93.50;;;;;;5017175;28;20025;-63
2021/11/12 06:08:10;;;;;;;19.75;12.73;;;8.10;93.50;;;;;;5036474;28;20112;-63
2021/11/12 06:10:35;;;;;;;16.17;13.38;;;8.10;93.50;;;;;;5040067;28;20674;-61
2021/11/12 06:13:01;;;;;;;17.27;13.55;;;8.10;93.50;;;;;;5036743;28;20036;-63
2021/11/12 06:15:27;;;;;;;18.65;14.30;;;8.10;93.50;;;;;;5034646;28;20053;-63
2021/11/12 06:17:52;;;;;;;19.85;13.88;;;8.10;93.50;;;;;;5040392;28;20171;-63
2021/11/12 06:20:18;;;;;;;17.38;13.63;;;8.10;93.50;;;;;;5037170;28;20178;-63
2021/11/12 06:22:43;;;;;;;18.48;14.07;;;8.10;93.50;;;;;;5036663;28;20140;-63
2021/11/12 06:25:09;;;;;;;17.80;14.18;;;8.10;93.50;;;;;;5040105;28;20025;-65
2021/11/12 06:27:35;;;;;;;17.55;13.30;;;8.10;93.60;;;;;;5038316;28;20025;-63
2021/11/12 06:30:02;;;;;;;18.02;13.38;;;8.10;93.50;;;;;;5037394;28;20065;-63
2021/11/12 06:32:27;;;;;;;16.73;13.02;;;8.10;93.50;;;;;;5043267;28;20025;-63
2021/11/12 06:34:53;;;;;;;18.50;14.00;;;8.10;93.40;;;;;;5015764;28;20048;-63
2021/11/12 06:37:19;;;;;;;18.83;13.63;;;8.10;93.40;;;;;;5039637;28;20095;-63
2021/11/12 06:39:45;;;;;;;18.17;14.18;;;8.10;93.40;;;;;;5037759;28;20033;-63
2021/11/12 06:42:22;;;;;;;37.33;14.35;;;8.20;93.40;;;;;;5038425;28;20047;-63
2021/11/12 06:50:12;;;;;;;50.17;15.63;;;8.20;93.30;;;;;;5039456;28;20086;-64
2021/11/12 06:52:39;;;;;;;54.05;16.33;;;8.20;93.30;;;;;;5038744;28;20082;-63
2021/11/12 06:55:05;;;;;;;52.92;15.52;;;8.20;93.30;;;;;;5037327;28;20044;-62
2021/11/12 06:57:31;;;;;;;79.38;16.38;;;8.20;93.30;;;;;;5041294;28;20159;-63
2021/11/12 06:59:56;;;;;;;69.47;17.50;;;8.20;93.20;;;;;;5040716;28;20593;-63
2021/11/12 07:02:25;;;;;;;53.13;15.80;;;8.20;93.20;;;;;;5038343;28;20056;-63
2021/11/12 07:04:51;;;;;;;88.53;17.67;;;8.20;93.50;;;;;;5038120;28;20433;-62
2021/11/12 07:07:17;;;;;;;98.25;18.20;;;8.20;93.20;;;;;;5007863;28;20041;-62
2021/11/12 07:09:42;;;;;;;111.40;20.40;;;8.30;93.20;;;;;;5043902;28;20036;-62
2021/11/12 07:12:08;;;;;;;78.63;16.75;;;8.20;93.20;;;;;;5042959;28;20032;-61
2021/11/12 07:14:35;;;;;;;78.05;19.63;;;8.30;93.20;;;;;;5040813;28;20037;-62
2021/11/12 07:17:00;;;;;;;92.43;20.40;;;8.20;93.20;;;;;;5039643;28;20504;-61
2021/11/12 07:19:26;;;;;;;114.78;22.83;;;8.20;93.20;;;;;;5043468;28;20092;-61
2021/11/12 07:21:54;;;;;;;135.40;22.58;;;8.20;93.20;;;;;;5041457;28;20049;-61
2021/11/12 07:24:21;;;;;;;257.33;33.05;;;8.30;93.50;;;;;;5026934;28;20521;-61
2021/11/12 07:26:47;;;;;;;274.40;34.50;;;8.30;93.20;;;;;;5005007;28;20028;-61
2021/11/12 07:29:12;;;;;;;219.35;32.20;;;8.30;93.20;;;;;;5023091;28;20048;-61
2021/11/12 07:31:39;;;;;;;252.55;31.88;;;8.30;93.10;;;;;;5041925;28;20477;-61
2021/11/12 07:34:04;;;;;;;269.15;33.63;;;8.30;93.10;;;;;;5042594;28;20128;-61
2021/11/12 07:36:38;;;;;;;242.98;30.90;;;8.30;93.10;;;;;;5010873;28;20128;-61
2021/11/12 07:39:06;;;;;;;231.32;29.65;;;8.30;93.10;;;;;;5028322;28;20055;-62
2021/11/12 07:42:36;;;;;;;225.10;29.88;;;8.30;93.10;;;;;;5041598;28;20104;-62
2021/11/12 07:47:09;;;;;;;174.68;27.77;;;8.30;93.10;;;;;;5026878;28;20045;-61
2021/11/12 07:49:37;;;;;;;144.00;24.17;;;8.30;93.10;;;;;;5028074;28;20056;-61
2021/11/12 07:52:03;;;;;;;144.48;25.10;;;8.30;93.10;;;;;;5027243;28;20526;-61
2021/11/12 07:54:28;;;;;;;218.80;28.98;;;8.30;93.10;;;;;;5023971;28;20025;-61
2021/11/12 07:56:54;;;;;;;169.77;24.95;;;8.30;93.20;;;;;;5041259;28;20036;-62
2021/11/12 07:59:19;;;;;;;137.95;23.00;;;8.30;93.20;;;;;;5006197;28;20025;-61
2021/11/12 08:01:45;;;;;;;234.48;30.30;;;8.30;93.20;;;;;;5025436;28;20041;-61
2021/11/12 08:04:11;;;;;;;170.35;25.85;;;8.30;93.20;;;;;;5043282;28;20163;-61
2021/11/12 08:06:37;;;;;;;156.68;24.27;;;8.30;93.20;;;;;;5042069;28;20467;-62
2021/11/12 08:09:07;;;;;;;170.30;25.70;;;8.30;93.30;;;;;;5043381;28;20025;-62
2021/11/12 08:11:40;;;;;;;173.88;25.02;;;8.40;93.20;;;;;;5036521;28;20102;-61
2021/11/12 08:14:18;;;;;;;169.63;26.10;;;8.30;93.20;;;;;;5009592;28;20041;-61
2021/11/12 08:22:00;;;;;;;143.18;24.50;;;8.30;93.30;;;;;;5042568;28;20471;-61
2021/11/12 08:32:42;;;;;;;152.88;23.58;;;8.30;93.50;;;;;;5023830;28;20025;-61
2021/11/12 08:43:06;;;;;;;109.50;21.92;;;8.40;93.40;;;;;;5025641;28;20320;-61
2021/11/12 08:45:38;;;;;;;98.38;20.45;;;8.40;93.40;;;;;;5022093;28;20032;-61
2021/11/12 08:48:12;;;;;;;85.97;21.10;;;8.40;93.30;;;;;;5025093;28;20170;-61
2021/11/12 08:50:38;;;;;;;89.13;20.80;;;8.40;93.30;;;;;;5007340;28;20041;-61
2021/11/12 08:53:06;;;;;;;82.65;19.27;;;8.40;93.40;;;;;;5021741;28;20502;-61
2021/11/12 08:55:33;;;;;;;95.82;21.00;;;8.40;93.30;;;;;;5040953;28;20029;-61
2021/11/12 08:57:59;;;;;;;88.70;20.80;;;8.40;93.40;;;;;;5024946;28;20043;-61
2021/11/12 09:00:25;;;;;;;99.63;20.67;;;8.40;93.40;;;;;;5009016;28;20036;-61
2021/11/12 09:02:51;;;;;;;155.55;25.90;;;8.40;93.40;;;;;;5025281;28;20223;-61
2021/11/12 09:05:18;;;;;;;219.73;27.50;;;8.40;93.50;;;;;;5022011;28;20075;-60
2021/11/12 09:07:47;;;;;;;136.23;22.02;;;8.40;93.60;;;;;;5022121;28;21330;-63
2021/11/12 09:10:13;;;;;;;202.68;26.60;;;8.50;93.60;;;;;;5040634;28;20029;-62
2021/11/12 09:12:39;;;;;;;84.82;20.02;;;8.50;93.40;;;;;;5005884;28;20036;-62
2021/11/12 09:15:13;;;;;;;91.72;21.38;;;8.50;93.30;;;;;;5016416;28;20025;-62
2021/11/12 09:17:45;;;;;;;80.65;20.05;;;8.50;93.10;;;;;;5040920;28;20120;-62
2021/11/12 09:20:11;;;;;;;93.38;18.33;;;8.50;93.20;;;;;;5007086;28;20442;-61
2021/11/12 09:22:36;;;;;;;80.47;20.05;;;8.50;93.20;;;;;;5029030;28;20461;-61
2021/11/12 09:25:02;;;;;;;73.15;20.83;;;8.50;93.20;;;;;;5041657;28;20037;-62
2021/11/12 09:27:28;;;;;;;74.10;19.77;;;8.50;93.30;;;;;;5040125;28;20358;-61
2021/11/12 09:29:54;;;;;;;60.10;17.65;;;8.50;93.30;;;;;;5040940;28;20029;-62
2021/11/12 09:32:19;;;;;;;61.30;19.00;;;8.50;93.30;;;;;;5038084;28;20029;-62
2021/11/12 09:34:45;;;;;;;83.22;20.20;;;8.50;93.30;;;;;;5035784;28;20646;-62
2021/11/12 09:37:12;;;;;;;63.55;18.90;;;8.50;93.40;;;;;;5036349;28;20075;-62
2021/11/12 09:39:40;;;;;;;72.28;19.80;;;8.50;93.40;;;;;;5036693;28;20048;-62
2021/11/12 09:42:06;;;;;;;147.50;22.48;;;8.50;93.40;;;;;;5021451;28;20035;-62
2021/11/12 09:44:32;;;;;;;107.70;20.90;;;8.50;93.40;;;;;;5022484;28;20087;-62
2021/11/12 09:46:58;;;;;;;90.95;19.50;;;8.50;93.30;;;;;;5039029;28;20419;-62
2021/11/12 09:49:23;;;;;;;100.45;20.13;;;8.50;93.30;;;;;;5025380;28;20043;-62
2021/11/12 09:51:49;;;;;;;101.53;20.42;;;8.60;93.30;;;;;;5037524;28;20029;-62
2021/11/12 09:54:14;;;;;;;70.38;18.73;;;8.60;93.30;;;;;;5041033;28;20021;-62
2021/11/12 09:56:40;;;;;;;55.75;16.90;;;8.60;93.30;;;;;;5037951;28;20063;-62
2021/11/12 09:59:05;;;;;;;82.15;18.20;;;8.60;93.20;;;;;;5036420;28;20068;-62
2021/11/12 10:01:34;;;;;;;90.47;20.33;;;8.60;93.20;;;;;;5034332;28;20083;-61
2021/11/12 10:04:04;;;;;;;84.75;18.00;;;8.60;93.20;;;;;;5036937;28;20021;-62
2021/11/12 10:06:33;;;;;;;77.93;18.83;;;8.60;93.30;;;;;;5017924;28;20041;-61
2021/11/12 10:08:58;;;;;;;62.42;19.23;;;8.60;93.20;;;;;;5038288;28;20044;-62
2021/11/12 10:11:29;;;;;;;62.67;18.17;;;8.70;93.30;;;;;;5039696;28;20037;-62
2021/11/12 10:14:01;;;;;;;62.95;18.20;;;8.70;93.20;;;;;;5033017;28;20502;-62
2021/11/12 10:16:42;;;;;;;76.28;18.98;;;8.90;93.30;;;;;;5038372;28;20033;-62
2021/11/12 10:19:18;;;;;;;122.60;22.63;;;8.70;93.20;;;;;;5037532;28;20025;-62
2021/11/12 10:21:49;;;;;;;142.02;25.58;;;8.70;93.30;;;;;;5012921;28;20028;-62
2021/11/12 10:24:16;;;;;;;128.25;23.60;;;8.80;93.50;;;;;;5020712;28;20056;-62
2021/11/12 10:26:44;;;;;;;99.50;22.20;;;8.70;93.40;;;;;;4996267;28;20029;-62
2021/11/12 10:29:11;;;;;;;181.65;29.88;;;8.70;93.40;;;;;;5021371;28;20043;-62
2021/11/12 10:31:51;;;;;;;121.35;26.67;;;8.80;93.50;;;;;;5000755;28;20036;-62
2021/11/12 10:34:19;;;;;;;127.20;26.75;;;8.80;93.50;;;;;;4998466;28;20028;-62
2021/11/12 10:36:52;;;;;;;117.35;29.25;;;8.80;93.40;;;;;;4999417;28;20128;-62
2021/11/12 10:39:26;;;;;;;125.22;25.88;;;8.80;93.40;;;;;;5019413;28;20067;-62
2021/11/12 10:41:51;;;;;;;104.05;26.90;;;8.80;93.30;;;;;;5019717;28;20025;-62
2021/11/12 10:44:17;;;;;;;111.60;24.63;;;8.80;93.30;;;;;;5020917;28;20024;-62
2021/11/12 10:46:43;;;;;;;89.38;24.85;;;8.80;93.20;;;;;;5035880;28;20060;-62
2021/11/12 10:49:28;;;;;;;117.50;24.02;;;8.90;93.30;;;;;;5019371;28;20397;-62
2021/11/12 10:52:14;;;;;;;88.73;23.20;;;8.80;93.30;;;;;;5016790;28;20716;-62
2021/11/12 10:54:45;;;;;;;;;;;8.90;93.30;;;;;;5035023;28;20295;-62
2021/11/12 10:57:10;;;;;;;125.75;23.70;;;8.90;93.20;;;;;;5023447;28;20360;-62
2021/11/12 10:59:50;;;;;;;102.65;24.35;;;8.90;93.30;;;;;;5041954;28;20033;-61
2021/11/12 11:02:29;;;;;;;95.15;23.05;;;8.90;93.30;;;;;;5034188;28;20025;-62
2021/11/12 11:04:59;;;;;;;111.35;24.35;;;9.00;93.20;;;;;;5002455;28;20447;-62
2021/11/12 11:07:25;;;;;;;125.13;26.10;;;9.00;93.20;;;;;;5001956;28;20566;-62
2021/11/12 11:09:56;;;;;;;99.20;23.20;;;9.00;93.10;;;;;;5005114;28;20743;-61
2021/11/12 11:12:43;;;;;;;91.47;23.30;;;9.00;93.20;;;;;;5020014;28;20697;-62
2021/11/12 11:15:20;;;;;;;113.00;26.42;;;9.00;93.00;;;;;;5020214;28;20590;-62
2021/11/12 11:17:48;;;;;;;110.20;24.17;;;9.10;93.20;;;;;;5001895;28;20194;-62
2021/11/12 11:20:20;;;;;;;93.18;22.27;;;9.10;93.20;;;;;;4982288;28;20122;-62
2021/11/12 11:22:56;;;;;;;94.88;21.65;;;9.10;93.10;;;;;;4988937;28;20225;-61
2021/11/12 11:25:25;;;;;;;81.20;21.65;;;9.10;93.10;;;;;;5013808;28;20113;-62
2021/11/12 11:27:52;;;;;;;87.88;22.77;;;9.10;93.10;;;;;;5012158;28;20029;-62
2021/11/12 11:30:17;;;;;;;76.13;21.58;;;9.10;93.10;;;;;;5023806;28;20120;-62
2021/11/12 11:32:44;;;;;;;81.38;22.35;;;9.10;93.00;;;;;;5030233;28;20033;-62
2021/11/12 11:35:10;;;;;;;102.95;22.52;;;9.20;93.00;;;;;;4999802;28;20508;-62
2021/11/12 11:37:37;;;;;;;96.20;21.50;;;9.20;93.00;;;;;;5032202;28;20532;-62
2021/11/12 11:40:03;;;;;;;93.40;22.30;;;9.20;92.90;;;;;;5028487;28;20064;-62
2021/11/12 11:42:28;;;;;;;80.72;20.20;;;9.20;92.90;;;;;;5019303;28;20672;-62
2021/11/12 11:44:54;;;;;;;79.45;21.10;;;9.20;92.90;;;;;;5037882;28;20150;-62
2021/11/12 11:47:22;;;;;;;112.10;23.17;;;9.20;92.90;;;;;;5011790;28;20039;-62
2021/11/12 11:49:50;;;;;;;93.65;21.27;;;9.30;92.90;;;;;;5026440;28;20036;-63
2021/11/12 11:52:24;;;;;;;94.78;21.83;;;9.30;93.00;;;;;;5037139;28;20554;-62
2021/11/12 11:54:49;;;;;;;139.88;24.90;;;9.30;93.00;;;;;;5040547;28;20056;-62
2021/11/12 11:57:19;;;;;;;140.13;25.27;;;9.30;93.00;;;;;;5039184;28;20389;-62
2021/11/12 11:59:46;;;;;;;133.38;24.77;;;9.40;93.10;;;;;;5039380;28;20029;-62
2021/11/12 12:02:17;;;;;;;133.80;30.92;;;9.40;93.20;;;;;;5035511;28;20029;-62
2021/11/12 12:04:49;;;;;;;116.82;23.80;;;9.50;93.10;;;;;;5041009;28;20646;-62
2021/11/12 12:07:25;;;;;;;85.35;21.42;;;9.50;93.00;;;;;;5042223;28;20032;-61
2021/11/12 12:10:03;;;;;;;60.28;20.30;;;9.50;92.90;;;;;;5039334;28;20075;-62
2021/11/12 12:12:31;;;;;;;72.85;20.58;;;9.50;92.90;;;;;;5038710;28;20049;-62
2021/11/12 12:15:03;;;;;;;69.43;20.80;;;9.50;92.80;;;;;;5038066;28;20647;-62
2021/11/12 12:17:29;;;;;;;76.43;24.10;;;9.50;92.80;;;;;;5038488;28;20029;-62
2021/11/12 12:20:01;;;;;;;66.00;23.02;;;9.50;92.80;;;;;;5040960;28;21810;-61
2021/11/12 12:31:03;;;;;;;78.20;23.03;;;9.60;92.80;;;;;;5040508;28;20090;-63
2021/11/12 13:23:32;;;;;;;283.30;51.72;;;10.00;92.50;;;;;;5038557;28;20063;-62
2021/11/12 13:25:59;;;;;;;255.18;84.93;;;10.00;92.60;;;;;;5041682;28;20024;-62
2021/11/12 13:28:40;;;;;;;205.43;58.40;;;10.00;92.60;;;;;;5037720;28;20029;-62
2021/11/12 13:31:08;;;;;;;231.63;47.10;;;10.00;92.60;;;;;;5039397;28;20031;-62
2021/11/12 13:33:50;;;;;;;234.98;39.50;;;10.10;92.60;;;;;;5041863;28;20070;-62
2021/11/12 13:36:30;;;;;;;170.88;35.13;;;10.10;92.60;;;;;;5039715;28;20116;-62
2021/11/12 13:39:03;;;;;;;197.65;37.03;;;10.10;92.70;;;;;;5027955;28;20120;-62
2021/11/12 13:41:33;;;;;;;180.50;37.17;;;10.10;92.60;;;;;;5041215;28;20164;-62
2021/11/12 13:44:09;;;;;;;170.85;37.22;;;10.10;92.60;;;;;;5026705;28;20078;-62
2021/11/12 13:46:54;;;;;;;131.20;33.03;;;10.10;92.60;;;;;;5038514;28;20108;-62
2021/11/12 13:49:27;;;;;;;162.65;33.28;;;10.20;92.60;;;;;;5034835;28;20017;-62
2021/11/12 13:51:58;;;;;;;149.57;32.67;;;10.20;92.60;;;;;;5035961;28;20079;-62
2021/11/12 13:54:23;;;;;;;204.65;36.13;;;10.20;92.60;;;;;;5038333;28;20041;-61
2021/11/12 13:56:49;;;;;;;170.52;35.17;;;10.20;92.60;;;;;;5021074;28;20049;-62
2021/11/12 13:59:14;;;;;;;169.85;33.85;;;10.20;92.60;;;;;;5040565;28;20794;-63
2021/11/12 14:01:40;;;;;;;134.18;32.95;;;10.20;92.70;;;;;;5041389;28;20476;-63
2021/11/12 14:04:26;;;;;;;181.68;34.15;;;10.30;92.70;;;;;;5035624;28;20067;-62
2021/11/12 14:06:53;;;;;;;109.82;28.77;;;10.30;92.70;;;;;;5037634;28;20573;-62
2021/11/12 14:09:23;;;;;;;141.02;31.33;;;10.30;92.60;;;;;;5020984;28;20373;-61
2021/11/12 14:12:11;;;;;;;137.77;32.28;;;10.30;92.50;;;;;;5033422;28;20033;-62
2021/11/12 14:14:37;;;;;;;139.70;30.38;;;10.40;92.80;;;;;;5036222;28;20082;-62
2021/11/12 14:17:23;;;;;;;131.98;29.35;;;10.40;92.40;;;;;;5033363;28;20033;-62
2021/11/12 14:19:59;;;;;;;109.43;29.98;;;10.40;92.40;;;;;;5036242;28;20268;-62
2021/11/12 14:23:12;;;;;;;117.57;28.83;;;10.40;92.40;;;;;;5021536;28;20044;-62
2021/11/12 14:28:36;;;;;;;112.68;28.60;;;10.40;92.40;;;;;;5041057;28;20220;-62
2021/11/12 14:33:29;;;;;;;124.32;30.10;;;10.40;92.50;;;;;;5042139;28;20033;-62
2021/11/12 14:49:26;;;;;;;117.43;29.95;;;10.40;92.70;;;;;;5041446;28;20021;-61
2021/11/12 14:52:06;;;;;;;;;;;10.50;92.70;;;;;;5037602;28;20109;-62
2021/11/12 14:54:51;;;;;;;152.30;36.55;;;10.50;92.70;;;;;;5036707;28;20218;-63
2021/11/12 14:59:44;;;;;;;145.45;38.42;;;10.50;92.60;;;;;;5039129;28;20125;-62
2021/11/12 15:02:10;;;;;;;132.73;32.42;;;10.50;92.70;;;;;;5021007;28;20029;-62
2021/11/12 15:04:36;;;;;;;144.45;32.95;;;10.50;92.70;;;;;;5040282;28;20599;-62
2021/11/12 15:07:01;;;;;;;167.57;41.10;;;10.50;92.70;;;;;;5016011;28;20041;-63
2021/11/12 15:09:32;;;;;;;208.68;45.85;;;10.50;92.70;;;;;;5018009;28;20346;-62
2021/11/12 15:12:04;;;;;;;166.50;39.53;;;10.50;92.80;;;;;;5038496;28;20026;-62
2021/11/12 15:14:33;;;;;;;236.25;41.55;;;10.40;92.90;;;;;;5024629;28;20037;-63
2021/11/12 15:16:59;;;;;;;235.43;42.47;;;10.50;93.10;;;;;;5039857;28;20078;-63
2021/11/12 15:19:25;;;;;;;229.00;41.80;;;10.50;93.10;;;;;;5041279;28;20025;-62
2021/11/12 15:22:05;;;;;;;207.45;42.92;;;10.50;93.10;;;;;;5022125;28;20060;-62
2021/11/12 15:24:51;;;;;;;434.50;59.78;;;10.40;93.00;;;;;;5024949;28;20049;-62
2021/11/12 15:27:33;;;;;;;618.45;75.63;;;10.50;93.20;;;;;;5034960;28;20029;-66
2021/11/12 15:30:05;;;;;;;643.83;73.18;;;10.60;93.40;;;;;;5041135;28;20140;-59
2021/11/12 15:32:48;;;;;;;1578.15;192.95;;;10.70;93.70;;;;;;5022600;28;20108;-59
2021/11/12 15:35:16;;;;;;;472.58;61.20;;;10.70;93.00;;;;;;5010288;28;20134;-61
2021/11/12 15:37:53;;;;;;;300.35;51.30;;;10.80;92.40;;;;;;5028760;28;20152;-62
2021/11/12 15:51:23;;;;;;;202.63;38.10;;;10.80;92.30;;;;;;5021454;28;20128;-62
2021/11/12 16:08:53;;;;;;;131.98;35.15;;;10.70;92.20;;;;;;5026749;28;20063;-61
2021/11/12 16:11:25;;;;;;;109.82;31.33;;;10.70;92.20;;;;;;5023626;28;20037;-61
2021/11/12 16:13:58;;;;;;;158.13;33.10;;;10.70;92.20;;;;;;5043385;28;20025;-61
2021/11/12 16:19:14;;;;;;;88.45;29.95;;;10.60;92.40;;;;;;5026361;28;20029;-64
2021/11/12 16:26:55;;;;;;;111.40;33.40;;;10.50;92.70;;;;;;5026108;28;20036;-61
2021/11/12 16:29:39;;;;;;;133.45;32.85;;;10.50;93.10;;;;;;5024608;28;20036;-61
2021/11/12 16:32:08;;;;;;;98.57;30.75;;;10.50;92.80;;;;;;5024699;28;20358;-61
2021/11/12 16:34:44;;;;;;;110.40;30.48;;;10.50;92.70;;;;;;5022276;28;20714;-61
2021/11/12 16:37:11;;;;;;;114.85;29.17;;;10.50;92.60;;;;;;5024335;28;20087;-61
2021/11/12 16:45:12;;;;;;;89.85;27.05;;;10.50;93.00;;;;;;5011646;28;20393;-61
2021/11/12 16:50:21;;;;;;;136.20;31.45;;;10.50;92.70;;;;;;5040926;28;20112;-61
2021/11/12 16:55:58;;;;;;;174.63;34.00;;;10.50;92.70;;;;;;5025123;28;20047;-61
2021/11/12 16:58:40;;;;;;;154.25;32.35;;;10.50;93.00;;;;;;5020109;28;20544;-63
2021/11/12 17:06:22;;;;;;;106.65;30.98;;;10.50;93.00;;;;;;5024837;28;20048;-61
2021/11/12 17:14:02;;;;;;;114.05;30.00;;;10.50;93.10;;;;;;5021939;28;20496;-61
2021/11/12 21:47:03;;;;;;;79.47;26.23;;;9.80;94.20;;;;;;5042390;28;20895;-62
2021/11/12 21:49:28;;;;;;;69.60;27.85;;;9.80;94.20;;;;;;5018495;28;20049;-61
2021/11/12 21:51:56;;;;;;;69.10;26.10;;;9.80;94.20;;;;;;5020645;28;20071;-61
2021/11/12 21:54:21;;;;;;;67.35;26.95;;;9.80;94.20;;;;;;5039961;28;20036;-61
2021/11/12 21:56:47;;;;;;;69.53;25.08;;;9.80;94.20;;;;;;5020716;28;20033;-61
2021/11/12 21:59:12;;;;;;;65.65;24.60;;;9.80;94.10;;;;;;5041226;28;20029;-61
2021/11/12 22:01:39;;;;;;;57.72;24.92;;;9.70;94.10;;;;;;5041166;28;20060;-61
2021/11/12 22:04:04;;;;;;;64.22;26.00;;;9.70;94.10;;;;;;5039984;28;20392;-61
2021/11/12 22:06:30;;;;;;;46.60;22.42;;;9.80;94.10;;;;;;5041087;28;20124;-61
2021/11/12 22:08:55;;;;;;;51.22;23.85;;;9.70;94.10;;;;;;5024926;28;20032;-61
2021/11/12 22:11:21;;;;;;;49.53;22.50;;;9.70;94.10;;;;;;5022564;28;20037;-61
